Time;durP1;ratioP1;P1;durP2;ratioP2;P2;SDS_P1;SDS_P2;PMS_P1;PMS_P2;Temp;Humidity;BMP_temperature;BMP_pressure;BME280_temperature;BME280_humidity;BME280_pressure;Samples;Min_cycle;Max_cycle;Signal;HPM_P1;HPM_P2
2022/09/01 00:02:07;;;;;;;1.63;0.90;;;;;;;;;;5045990;28;20082;-62
2022/09/01 00:04:34;;;;;;;4.90;0.80;;;;;;;;;;5048302;28;20032;-60
2022/09/01 00:07:00;;;;;;;3.63;1.00;;;;;;;;;;5048993;28;20040;-62
2022/09/01 00:09:26;;;;;;;5.05;0.90;;;;;;;;;;5051228;28;20714;-62
2022/09/01 00:11:54;;;;;;;1.40;0.82;;;;;;;;;;5048010;28;20037;-62
2022/09/01 00:14:23;;;;;;;1.60;0.77;;;;;;;;;;5050386;28;20037;-62
2022/09/01 00:16:49;;;;;;;1.52;0.88;;;;;;;;;;5052343;28;20029;-62
2022/09/01 00:19:15;;;;;;;1.38;0.70;;;;;;;;;;5051053;28;20032;-62
2022/09/01 00:21:42;;;;;;;7.15;0.70;;;;;;;;;;5042740;28;20456;-62
2022/09/01 00:24:09;;;;;;;2.80;0.80;;;;;;;;;;5051144;28;20039;-62
2022/09/01 00:26:35;;;;;;;4.55;0.80;;;;;;;;;;5050093;28;20383;-62
2022/09/01 00:29:01;;;;;;;1.30;0.60;;;;;;;;;;5052399;28;20460;-62
2022/09/01 00:31:27;;;;;;;1.15;0.63;;;;;;;;;;5049330;28;20093;-62
2022/09/01 00:33:53;;;;;;;1.23;0.70;;;;;;;;;;5052899;28;20052;-62
2022/09/01 00:36:19;;;;;;;2.63;0.90;;;;;;;;;;5051647;28;20120;-62
2022/09/01 00:38:45;;;;;;;2.85;0.73;;;;;;;;;;5051789;28;20048;-62
2022/09/01 00:41:11;;;;;;;1.50;0.60;;;;;;;;;;5052917;28;20460;-62
2022/09/01 00:43:40;;;;;;;1.33;0.60;;;;;;;;;;5048941;28;20017;-63
2022/09/01 00:46:08;;;;;;;1.63;0.82;;;;;;;;;;5051667;28;20396;-62
2022/09/01 00:48:35;;;;;;;1.35;0.70;;;;;;;;;;5052580;28;20350;-62
2022/09/01 00:51:01;;;;;;;1.80;0.60;;;;;;;;;;5052827;28;20032;-62
2022/09/01 00:53:27;;;;;;;2.28;0.73;;;;;;;;;;5051215;28;20428;-62
2022/09/01 00:55:53;;;;;;;2.13;0.80;;;;;;;;;;5052581;28;20033;-62
2022/09/01 00:58:19;;;;;;;3.55;0.80;;;;;;;;;;5050756;28;20094;-61
2022/09/01 01:00:46;;;;;;;1.65;0.80;;;;;;;;;;5048450;28;20022;-60
2022/09/01 01:03:13;;;;;;;3.10;0.82;;;;;;;;;;5047706;28;20041;-60
2022/09/01 01:05:47;;;;;;;1.52;0.70;;;;;;;;;;5050660;28;20025;-60
2022/09/01 01:08:17;;;;;;;3.20;0.57;;;;;;;;;;5050235;28;20116;-60
2022/09/01 01:10:43;;;;;;;3.30;0.90;;;;;;;;;;5052602;28;20057;-60
2022/09/01 01:13:11;;;;;;;2.60;0.80;;;;;;;;;;5051171;28;20499;-60
2022/09/01 01:15:37;;;;;;;3.15;1.08;;;;;;;;;;5051950;28;20041;-60
2022/09/01 01:18:03;;;;;;;2.67;0.80;;;;;;;;;;5049966;28;20484;-60
2022/09/01 01:23:21;;;;;;;3.55;0.55;;;;;;;;;;5046744;28;20534;-59
2022/09/01 01:25:48;;;;;;;1.92;0.80;;;;;;;;;;5050769;28;20064;-60
2022/09/01 01:28:20;;;;;;;5.15;0.90;;;;;;;;;;5050390;28;20083;-60
2022/09/01 01:31:00;;;;;;;0.88;0.73;;;;;;;;;;5050618;28;20024;-60
2022/09/01 01:33:28;;;;;;;1.60;0.70;;;;;;;;;;5049565;28;20656;-60
2022/09/01 01:35:56;;;;;;;3.17;0.88;;;;;;;;;;5048634;28;20033;-60
2022/09/01 01:38:22;;;;;;;4.47;0.77;;;;;;;;;;5050122;28;20033;-60
2022/09/01 01:40:49;;;;;;;1.35;0.70;;;;;;;;;;5052018;28;20076;-60
2022/09/01 01:43:18;;;;;;;1.67;0.73;;;;;;;;;;5050323;28;20021;-60
2022/09/01 01:45:45;;;;;;;3.38;0.77;;;;;;;;;;5051043;28;20194;-60
2022/09/01 01:48:11;;;;;;;4.07;0.70;;;;;;;;;;5051880;28;20044;-60
2022/09/01 01:50:37;;;;;;;2.47;0.77;;;;;;;;;;5049173;28;20033;-60
2022/09/01 01:53:05;;;;;;;1.63;0.77;;;;;;;;;;5048491;28;20029;-59
2022/09/01 01:55:31;;;;;;;1.70;0.73;;;;;;;;;;5050366;28;20057;-60
2022/09/01 01:57:58;;;;;;;2.10;0.90;;;;;;;;;;5050914;28;20055;-61
2022/09/01 02:00:26;;;;;;;1.40;0.70;;;;;;;;;;5051523;28;20056;-60
2022/09/01 02:02:52;;;;;;;1.77;0.70;;;;;;;;;;5049562;28;20485;-60
2022/09/01 02:05:24;;;;;;;2.42;1.30;;;;;;;;;;5048809;28;20124;-60
2022/09/01 02:07:54;;;;;;;2.00;0.90;;;;;;;;;;5051096;28;20036;-60
2022/09/01 02:10:22;;;;;;;1.77;0.85;;;;;;;;;;5049020;28;20040;-59
2022/09/01 02:12:48;;;;;;;2.45;0.68;;;;;;;;;;5050629;28;20017;-59
2022/09/01 02:15:14;;;;;;;1.23;0.52;;;;;;;;;;5051059;28;20048;-59
2022/09/01 02:17:42;;;;;;;1.23;0.70;;;;;;;;;;5049801;28;20467;-59
2022/09/01 02:20:08;;;;;;;4.30;0.90;;;;;;;;;;5048117;28;20656;-60
2022/09/01 02:22:36;;;;;;;3.05;0.80;;;;;;;;;;5050409;28;20029;-60
2022/09/01 02:25:02;;;;;;;2.30;0.70;;;;;;;;;;5050050;28;20025;-60
2022/09/01 02:27:28;;;;;;;2.30;1.05;;;;;;;;;;5048889;28;20502;-60
2022/09/01 02:29:54;;;;;;;3.28;1.15;;;;;;;;;;5050404;28;20033;-60
2022/09/01 02:32:21;;;;;;;1.75;0.70;;;;;;;;;;5045452;28;20055;-60
2022/09/01 02:34:52;;;;;;;2.50;0.90;;;;;;;;;;5050023;28;20103;-59
2022/09/01 02:37:23;;;;;;;3.55;0.70;;;;;;;;;;5050765;28;20021;-60
2022/09/01 02:39:49;;;;;;;3.55;0.63;;;;;;;;;;5050095;28;20024;-60
2022/09/01 02:42:15;;;;;;;3.45;0.90;;;;;;;;;;5048119;28;20036;-61
2022/09/01 02:44:42;;;;;;;1.58;0.70;;;;;;;;;;5047582;28;20037;-60
2022/09/01 02:47:08;;;;;;;1.48;0.70;;;;;;;;;;5047851;28;20781;-61
2022/09/01 02:49:35;;;;;;;5.68;0.60;;;;;;;;;;5049323;28;20032;-60
2022/09/01 02:52:03;;;;;;;4.35;0.75;;;;;;;;;;5049541;28;20515;-60
2022/09/01 02:54:30;;;;;;;1.35;0.80;;;;;;;;;;5047212;28;20567;-59
2022/09/01 02:56:56;;;;;;;1.77;0.85;;;;;;;;;;5049917;28;20036;-61
2022/09/01 02:59:23;;;;;;;3.60;0.93;;;;;;;;;;5047946;28;20464;-60
2022/09/01 03:01:50;;;;;;;2.80;0.75;;;;;;;;;;5049689;28;20040;-60
2022/09/01 03:04:16;;;;;;;2.38;0.88;;;;;;;;;;5045617;28;20032;-60
2022/09/01 03:06:42;;;;;;;2.33;1.00;;;;;;;;;;5050281;28;20380;-60
2022/09/01 03:09:10;;;;;;;1.83;1.00;;;;;;;;;;5049807;28;20095;-60
2022/09/01 03:11:38;;;;;;;1.20;0.95;;;;;;;;;;5049675;28;20048;-60
2022/09/01 03:14:05;;;;;;;1.17;0.90;;;;;;;;;;5049363;28;20032;-60
2022/09/01 03:16:31;;;;;;;3.70;1.35;;;;;;;;;;5049254;28;20072;-60
2022/09/01 03:18:58;;;;;;;2.20;1.05;;;;;;;;;;5049220;28;20025;-60
2022/09/01 03:21:24;;;;;;;2.15;1.13;;;;;;;;;;5050099;28;20079;-60
2022/09/01 03:23:51;;;;;;;3.53;1.30;;;;;;;;;;5049126;28;20021;-59
2022/09/01 03:26:20;;;;;;;3.38;1.52;;;;;;;;;;5050222;28;20036;-60
2022/09/01 03:28:47;;;;;;;2.47;1.05;;;;;;;;;;5047085;28;20029;-59
2022/09/01 03:31:13;;;;;;;1.58;1.13;;;;;;;;;;5047005;28;20090;-60
2022/09/01 03:33:39;;;;;;;3.15;1.25;;;;;;;;;;5046827;28;20524;-59
2022/09/01 03:36:05;;;;;;;1.65;1.17;;;;;;;;;;5049004;28;20393;-59
2022/09/01 03:38:32;;;;;;;2.22;1.17;;;;;;;;;;5044246;28;20031;-60
2022/09/01 03:41:00;;;;;;;2.58;1.20;;;;;;;;;;5049118;28;20079;-60
2022/09/01 03:43:26;;;;;;;2.80;1.42;;;;;;;;;;5049552;28;20064;-59
2022/09/01 03:45:54;;;;;;;2.97;1.55;;;;;;;;;;5048416;28;20021;-59
2022/09/01 03:48:20;;;;;;;3.92;1.30;;;;;;;;;;5048746;28;20029;-60
2022/09/01 03:50:46;;;;;;;4.03;1.30;;;;;;;;;;5052612;28;20025;-60
2022/09/01 03:53:16;;;;;;;3.97;1.70;;;;;;;;;;5052290;28;20017;-60
2022/09/01 03:55:44;;;;;;;2.53;1.05;;;;;;;;;;5052751;28;20035;-60
2022/09/01 03:58:11;;;;;;;2.72;1.15;;;;;;;;;;5052638;28;20064;-60
2022/09/01 04:00:48;;;;;;;1.98;1.13;;;;;;;;;;5050892;28;20443;-60
2022/09/01 04:03:15;;;;;;;3.13;1.33;;;;;;;;;;5051715;28;20029;-60
2022/09/01 04:05:42;;;;;;;2.97;1.42;;;;;;;;;;5051695;28;20021;-60
2022/09/01 04:08:10;;;;;;;2.92;1.42;;;;;;;;;;5050826;28;20037;-59
2022/09/01 04:10:37;;;;;;;1.75;1.15;;;;;;;;;;5052897;28;20401;-59
2022/09/01 04:13:03;;;;;;;2.03;1.25;;;;;;;;;;5053152;28;20353;-60
2022/09/01 04:15:31;;;;;;;3.03;1.38;;;;;;;;;;5051554;28;20104;-60
2022/09/01 04:18:09;;;;;;;3.85;1.40;;;;;;;;;;5044935;28;20423;-59
2022/09/01 04:20:46;;;;;;;2.67;1.25;;;;;;;;;;5052026;28;20096;-59
2022/09/01 04:23:15;;;;;;;3.03;1.40;;;;;;;;;;5051233;28;20492;-59
2022/09/01 04:25:41;;;;;;;4.07;1.63;;;;;;;;;;5052441;28;20067;-60
2022/09/01 04:28:16;;;;;;;1.45;1.10;;;;;;;;;;5053085;28;20037;-60
2022/09/01 04:30:42;;;;;;;3.17;1.65;;;;;;;;;;5053691;28;20088;-60
2022/09/01 04:33:09;;;;;;;1.77;1.40;;;;;;;;;;5044968;28;20100;-60
2022/09/01 04:35:41;;;;;;;4.47;1.50;;;;;;;;;;5053941;28;20025;-60
2022/09/01 04:38:07;;;;;;;2.30;1.45;;;;;;;;;;5046685;28;20776;-60
2022/09/01 04:40:37;;;;;;;2.00;1.27;;;;;;;;;;5050750;28;20050;-59
2022/09/01 04:43:03;;;;;;;5.22;1.20;;;;;;;;;;5041744;28;20033;-60
2022/09/01 04:45:30;;;;;;;2.67;1.20;;;;;;;;;;5044756;28;20075;-59
2022/09/01 04:47:58;;;;;;;4.43;1.30;;;;;;;;;;5047264;28;20116;-60
2022/09/01 04:50:24;;;;;;;3.03;1.10;;;;;;;;;;5043270;28;20036;-60
2022/09/01 04:52:52;;;;;;;3.10;1.40;;;;;;;;;;5046813;28;20032;-59
2022/09/01 04:55:19;;;;;;;2.75;1.00;;;;;;;;;;5047569;28;20032;-60
2022/09/01 04:57:49;;;;;;;1.92;1.20;;;;;;;;;;5048318;28;20476;-60
2022/09/01 05:00:21;;;;;;;6.38;1.52;;;;;;;;;;5047120;28;20045;-59
2022/09/01 05:02:47;;;;;;;3.40;1.17;;;;;;;;;;5052276;28;20167;-60
2022/09/01 05:05:13;;;;;;;2.75;1.20;;;;;;;;;;5051053;28;20035;-60
2022/09/01 05:07:39;;;;;;;2.30;1.10;;;;;;;;;;5046353;28;20113;-60
2022/09/01 05:10:05;;;;;;;4.45;1.10;;;;;;;;;;5054086;28;20041;-60
2022/09/01 05:12:31;;;;;;;2.22;1.10;;;;;;;;;;5051553;28;20059;-59
2022/09/01 05:14:57;;;;;;;2.25;1.13;;;;;;;;;;5051906;28;20055;-59
2022/09/01 05:17:28;;;;;;;2.40;1.00;;;;;;;;;;5050977;28;20029;-60
2022/09/01 05:19:55;;;;;;;4.35;1.35;;;;;;;;;;5041200;28;20040;-60
2022/09/01 05:22:21;;;;;;;1.98;1.00;;;;;;;;;;5052497;28;20044;-60
2022/09/01 05:24:50;;;;;;;2.55;1.20;;;;;;;;;;5053214;28;20029;-60
2022/09/01 05:27:17;;;;;;;3.78;1.30;;;;;;;;;;5049070;28;20052;-60
2022/09/01 05:29:45;;;;;;;1.60;1.10;;;;;;;;;;5053738;28;20052;-61
2022/09/01 05:32:11;;;;;;;2.10;1.13;;;;;;;;;;5056811;28;20493;-59
2022/09/01 05:34:38;;;;;;;4.85;1.20;;;;;;;;;;5050822;28;20028;-59
2022/09/01 05:37:05;;;;;;;5.97;1.58;;;;;;;;;;5056487;28;20032;-60
2022/09/01 05:39:31;;;;;;;5.95;2.05;;;;;;;;;;5055429;28;20383;-59
2022/09/01 05:41:58;;;;;;;2.08;1.33;;;;;;;;;;5051857;28;20045;-60
2022/09/01 05:44:24;;;;;;;2.30;1.33;;;;;;;;;;5052136;28;20123;-60
2022/09/01 05:46:51;;;;;;;2.95;1.67;;;;;;;;;;5054154;28;20039;-60
2022/09/01 05:49:18;;;;;;;3.90;1.70;;;;;;;;;;5052877;28;20481;-60
2022/09/01 05:51:51;;;;;;;4.15;1.75;;;;;;;;;;5052671;28;20022;-60
2022/09/01 05:54:20;;;;;;;3.45;1.98;;;;;;;;;;5053173;28;20111;-60
2022/09/01 05:56:46;;;;;;;3.78;1.98;;;;;;;;;;5053221;28;20032;-60
2022/09/01 05:59:13;;;;;;;3.75;1.80;;;;;;;;;;5051119;28;20350;-60
2022/09/01 06:01:40;;;;;;;4.10;2.00;;;;;;;;;;5051451;28;20037;-59
2022/09/01 06:04:07;;;;;;;6.30;2.20;;;;;;;;;;5053095;28;20025;-60
2022/09/01 06:06:39;;;;;;;7.07;2.08;;;;;;;;;;5052162;28;20033;-60
2022/09/01 06:09:06;;;;;;;6.00;3.10;;;;;;;;;;5039164;28;20065;-59
2022/09/01 06:11:32;;;;;;;5.13;2.15;;;;;;;;;;5051602;28;20032;-60
2022/09/01 06:14:01;;;;;;;3.72;2.35;;;;;;;;;;5038132;28;20053;-60
2022/09/01 06:16:29;;;;;;;3.25;2.03;;;;;;;;;;5052715;28;20056;-60
2022/09/01 06:18:56;;;;;;;8.15;2.53;;;;;;;;;;5038818;28;20167;-60
2022/09/01 06:21:23;;;;;;;6.13;2.38;;;;;;;;;;5050790;28;20025;-60
2022/09/01 06:23:52;;;;;;;5.55;2.20;;;;;;;;;;5050783;28;20037;-60
2022/09/01 06:26:25;;;;;;;4.45;1.95;;;;;;;;;;5052557;28;20025;-60
2022/09/01 06:28:53;;;;;;;;;;;;;;;;;;5052775;28;20075;-60
2022/09/01 06:31:22;;;;;;;3.45;1.90;;;;;;;;;;5051479;28;20322;-60
2022/09/01 06:33:50;;;;;;;3.22;1.75;;;;;;;;;;5044821;28;20021;-60
2022/09/01 06:36:16;;;;;;;2.90;1.75;;;;;;;;;;5052245;28;20139;-61
2022/09/01 06:38:42;;;;;;;4.70;1.92;;;;;;;;;;5052504;28;20064;-60
2022/09/01 06:41:11;;;;;;;3.90;1.83;;;;;;;;;;5050438;28;20036;-60
2022/09/01 06:43:38;;;;;;;4.05;1.50;;;;;;;;;;5051236;28;20029;-60
2022/09/01 06:46:04;;;;;;;5.68;1.88;;;;;;;;;;5046629;28;20174;-60
2022/09/01 06:48:30;;;;;;;2.65;1.40;;;;;;;;;;5051197;28;20021;-61
2022/09/01 06:51:02;;;;;;;5.72;1.50;;;;;;;;;;5050705;28;20366;-60
2022/09/01 06:53:30;;;;;;;3.25;1.30;;;;;;;;;;5050915;28;20043;-60
2022/09/01 06:55:56;;;;;;;3.25;1.13;;;;;;;;;;5052120;28;20032;-61
2022/09/01 06:58:22;;;;;;;2.50;1.17;;;;;;;;;;5049604;28;20035;-60
2022/09/01 07:00:48;;;;;;;2.70;0.77;;;;;;;;;;5049995;28;20421;-61
2022/09/01 07:03:15;;;;;;;4.18;0.88;;;;;;;;;;5042214;28;20104;-61
2022/09/01 07:05:42;;;;;;;4.97;0.73;;;;;;;;;;5050782;28;20029;-59
2022/09/01 07:08:09;;;;;;;2.45;0.85;;;;;;;;;;5051813;28;20021;-60
2022/09/01 07:10:43;;;;;;;1.45;0.60;;;;;;;;;;5051330;28;20040;-60
2022/09/01 07:13:09;;;;;;;1.83;0.80;;;;;;;;;;5051090;28;20056;-61
2022/09/01 07:15:42;;;;;;;3.13;0.47;;;;;;;;;;5043919;28;20057;-60
2022/09/01 07:18:09;;;;;;;2.33;0.70;;;;;;;;;;5044770;28;20507;-60
2022/09/01 07:20:38;;;;;;;1.65;0.50;;;;;;;;;;5040372;28;20032;-60
2022/09/01 07:23:05;;;;;;;5.85;0.70;;;;;;;;;;5050070;28;20025;-60
2022/09/01 07:25:35;;;;;;;2.53;0.85;;;;;;;;;;5049744;28;20025;-60
2022/09/01 07:28:01;;;;;;;3.53;0.90;;;;;;;;;;5050688;28;20036;-61
2022/09/01 07:30:27;;;;;;;1.98;0.90;;;;;;;;;;5048661;28;20465;-61
2022/09/01 07:32:54;;;;;;;3.15;0.88;;;;;;;;;;5045720;28;20465;-60
2022/09/01 07:35:21;;;;;;;2.90;0.85;;;;;;;;;;5049945;28;20040;-60
2022/09/01 07:37:50;;;;;;;2.47;0.60;;;;;;;;;;5047646;28;20051;-60
2022/09/01 07:40:20;;;;;;;1.77;0.57;;;;;;;;;;5049173;28;20669;-60
2022/09/01 07:42:47;;;;;;;2.33;0.68;;;;;;;;;;5050159;28;20029;-60
2022/09/01 07:45:15;;;;;;;2.38;0.80;;;;;;;;;;5049379;28;20029;-62
2022/09/01 07:47:43;;;;;;;2.22;0.60;;;;;;;;;;5047866;28;20112;-61
2022/09/01 07:50:11;;;;;;;2.10;0.60;;;;;;;;;;5049271;28;20075;-60
2022/09/01 07:52:42;;;;;;;2.30;0.75;;;;;;;;;;5049116;28;20029;-61
2022/09/01 07:55:12;;;;;;;3.35;0.88;;;;;;;;;;5049423;28;20067;-61
2022/09/01 07:57:41;;;;;;;2.25;0.60;;;;;;;;;;5048460;28;20565;-60
2022/09/01 08:00:08;;;;;;;3.50;0.80;;;;;;;;;;5050298;28;20045;-60
2022/09/01 08:02:35;;;;;;;2.55;0.63;;;;;;;;;;5049644;28;20036;-60
2022/09/01 08:05:01;;;;;;;1.80;0.50;;;;;;;;;;5050584;28;20032;-60
2022/09/01 08:07:27;;;;;;;4.03;0.80;;;;;;;;;;5050105;28;20051;-61
2022/09/01 08:09:53;;;;;;;2.08;0.47;;;;;;;;;;5047691;28;20064;-60
2022/09/01 08:12:19;;;;;;;3.40;0.47;;;;;;;;;;5049234;28;20025;-60
2022/09/01 08:14:45;;;;;;;2.28;1.02;;;;;;;;;;5049657;28;20091;-60
2022/09/01 08:17:11;;;;;;;3.65;0.80;;;;;;;;;;5050819;28;20025;-60
2022/09/01 08:19:37;;;;;;;1.63;0.70;;;;;;;;;;5045138;28;20036;-60
2022/09/01 08:22:03;;;;;;;3.13;0.85;;;;;;;;;;5045460;28;20029;-61
2022/09/01 08:24:29;;;;;;;1.58;0.50;;;;;;;;;;5044089;28;20155;-60
2022/09/01 08:26:55;;;;;;;0.70;0.40;;;;;;;;;;5048607;28;20422;-59
2022/09/01 08:29:21;;;;;;;1.58;0.50;;;;;;;;;;5049385;28;20033;-60
2022/09/01 08:31:47;;;;;;;1.08;0.65;;;;;;;;;;5049116;28;20402;-60
2022/09/01 08:34:15;;;;;;;4.15;0.50;;;;;;;;;;5041607;28;20030;-60
2022/09/01 08:36:41;;;;;;;2.05;0.52;;;;;;;;;;5053406;28;20029;-60
2022/09/01 08:39:07;;;;;;;3.28;0.60;;;;;;;;;;5053080;28;20063;-60
2022/09/01 08:41:44;;;;;;;2.63;0.30;;;;;;;;;;5053387;28;20510;-61
2022/09/01 08:44:16;;;;;;;1.90;0.60;;;;;;;;;;5051546;28;20032;-61
2022/09/01 08:46:43;;;;;;;2.10;0.55;;;;;;;;;;5053441;28;20456;-60
2022/09/01 08:49:13;;;;;;;3.38;0.45;;;;;;;;;;5051348;28;20039;-60
2022/09/01 08:51:45;;;;;;;1.77;0.50;;;;;;;;;;5053075;28;20054;-60
2022/09/01 08:54:20;;;;;;;3.72;0.60;;;;;;;;;;5052494;28;20017;-60
2022/09/01 08:56:47;;;;;;;0.90;0.40;;;;;;;;;;5050530;28;20021;-61
2022/09/01 08:59:13;;;;;;;1.65;0.38;;;;;;;;;;5052488;28;20050;-61
2022/09/01 09:01:46;;;;;;;1.02;0.20;;;;;;;;;;5053092;28;20025;-60
2022/09/01 09:04:38;;;;;;;1.02;0.43;;;;;;;;;;5052069;28;20021;-59
2022/09/01 09:07:14;;;;;;;1.02;0.30;;;;;;;;;;5041932;28;20026;-59
2022/09/01 09:09:44;;;;;;;0.50;0.20;;;;;;;;;;5051762;28;20355;-61
2022/09/01 09:12:19;;;;;;;2.30;0.60;;;;;;;;;;5052109;28;20029;-60
2022/09/01 09:14:54;;;;;;;5.32;0.60;;;;;;;;;;5050614;28;20032;-60
2022/09/01 09:17:24;;;;;;;1.52;0.38;;;;;;;;;;5048196;28;20492;-59
2022/09/01 09:19:50;;;;;;;1.73;0.40;;;;;;;;;;5050936;28;20037;-60
2022/09/01 09:22:17;;;;;;;2.47;0.40;;;;;;;;;;5046865;28;20083;-60
2022/09/01 09:24:55;;;;;;;1.27;0.55;;;;;;;;;;5042116;28;20116;-61
2022/09/01 09:27:23;;;;;;;2.17;0.40;;;;;;;;;;5046790;28;20384;-60
2022/09/01 09:29:56;;;;;;;0.80;0.30;;;;;;;;;;5049077;28;20032;-60
2022/09/01 09:32:23;;;;;;;1.77;0.30;;;;;;;;;;5039331;28;20700;-60
2022/09/01 09:34:50;;;;;;;3.67;0.40;;;;;;;;;;5047294;28;20500;-60
2022/09/01 09:37:19;;;;;;;3.65;0.55;;;;;;;;;;5051377;28;20025;-60
2022/09/01 09:39:45;;;;;;;0.90;0.35;;;;;;;;;;5048469;28;20781;-59
2022/09/01 09:42:13;;;;;;;3.15;0.40;;;;;;;;;;5038147;28;20029;-60
2022/09/01 09:44:51;;;;;;;4.85;0.88;;;;;;;;;;5049790;28;20437;-60
2022/09/01 09:47:36;;;;;;;1.80;0.52;;;;;;;;;;5042183;28;20021;-60
2022/09/01 09:50:17;;;;;;;3.10;0.50;;;;;;;;;;5046362;28;20041;-61
2022/09/01 09:52:45;;;;;;;2.22;0.43;;;;;;;;;;5048311;28;20028;-59
2022/09/01 09:55:29;;;;;;;2.55;0.20;;;;;;;;;;5040696;28;20451;-60
2022/09/01 09:57:59;;;;;;;0.90;0.43;;;;;;;;;;5040270;28;20119;-59
2022/09/01 10:00:29;;;;;;;2.03;0.50;;;;;;;;;;5041620;28;20469;-60
2022/09/01 10:03:01;;;;;;;3.30;0.40;;;;;;;;;;5042625;28;20028;-60
2022/09/01 10:05:27;;;;;;;1.15;0.63;;;;;;;;;;5050623;28;20495;-59
2022/09/01 10:07:54;;;;;;;1.67;0.55;;;;;;;;;;5052043;28;20087;-60
2022/09/01 10:10:39;;;;;;;1.27;0.45;;;;;;;;;;5051498;28;20075;-60
2022/09/01 10:13:08;;;;;;;1.10;0.50;;;;;;;;;;5038064;28;20021;-60
2022/09/01 10:15:34;;;;;;;3.17;0.65;;;;;;;;;;5052648;28;20033;-59
2022/09/01 10:18:14;;;;;;;2.42;0.60;;;;;;;;;;5051575;28;20125;-59
2022/09/01 10:20:45;;;;;;;1.20;0.47;;;;;;;;;;5052085;28;20131;-59
2022/09/01 10:23:11;;;;;;;3.38;0.57;;;;;;;;;;5051156;28;20111;-60
2022/09/01 10:25:38;;;;;;;2.70;0.40;;;;;;;;;;5050989;28;20021;-59
2022/09/01 10:28:16;;;;;;;1.98;0.30;;;;;;;;;;5052161;28;20489;-59
2022/09/01 10:30:44;;;;;;;1.25;0.38;;;;;;;;;;5048973;28;20103;-59
2022/09/01 10:33:11;;;;;;;1.08;0.30;;;;;;;;;;5052320;28;20079;-60
2022/09/01 10:35:41;;;;;;;1.17;0.40;;;;;;;;;;5047870;28;20416;-59
2022/09/01 10:38:09;;;;;;;1.58;0.45;;;;;;;;;;5052191;28;20029;-60
2022/09/01 10:40:37;;;;;;;2.72;0.50;;;;;;;;;;5048975;28;20083;-61
2022/09/01 10:43:23;;;;;;;1.27;0.28;;;;;;;;;;5051503;28;20025;-60
2022/09/01 10:45:49;;;;;;;1.95;0.63;;;;;;;;;;5052233;28;20040;-59
2022/09/01 10:48:24;;;;;;;1.30;0.20;;;;;;;;;;5052114;28;20021;-60
2022/09/01 10:50:51;;;;;;;1.00;0.17;;;;;;;;;;5049553;28;20022;-59
2022/09/01 10:53:32;;;;;;;0.68;0.20;;;;;;;;;;5051022;28;20492;-59
2022/09/01 10:56:17;;;;;;;1.05;0.30;;;;;;;;;;5051970;28;20033;-59
2022/09/01 10:58:47;;;;;;;1.40;0.40;;;;;;;;;;5049234;28;20032;-60
2022/09/01 11:01:13;;;;;;;0.80;0.15;;;;;;;;;;5049706;28;20032;-60
2022/09/01 11:03:50;;;;;;;0.38;0.20;;;;;;;;;;5045342;28;20033;-60
2022/09/01 11:06:33;;;;;;;1.20;0.20;;;;;;;;;;5039273;28;20109;-60
2022/09/01 11:09:06;;;;;;;2.22;0.20;;;;;;;;;;5051449;28;20439;-60
2022/09/01 11:11:32;;;;;;;1.00;0.22;;;;;;;;;;5048957;28;20476;-60
2022/09/01 11:13:58;;;;;;;1.40;0.40;;;;;;;;;;5051645;28;20029;-60
2022/09/01 11:16:33;;;;;;;0.93;0.30;;;;;;;;;;5047958;28;20029;-61
2022/09/01 11:19:17;;;;;;;2.20;0.50;;;;;;;;;;5043789;28;20064;-60
2022/09/01 11:21:44;;;;;;;5.05;0.47;;;;;;;;;;5043836;28;20115;-60
2022/09/01 11:24:28;;;;;;;1.27;0.38;;;;;;;;;;5051346;28;20075;-60
2022/09/01 11:26:54;;;;;;;0.82;0.50;;;;;;;;;;5051088;28;20116;-59
2022/09/01 11:29:39;;;;;;;2.55;0.30;;;;;;;;;;5049937;28;20112;-60
2022/09/01 11:32:05;;;;;;;0.30;0.20;;;;;;;;;;5067444;28;20045;-60
2022/09/01 11:34:31;;;;;;;1.90;0.25;;;;;;;;;;5050144;28;20037;-60
2022/09/01 11:36:59;;;;;;;0.52;0.30;;;;;;;;;;5051680;28;20025;-60
2022/09/01 11:39:33;;;;;;;1.60;0.28;;;;;;;;;;5050203;28;20040;-61
2022/09/01 11:42:17;;;;;;;1.40;0.32;;;;;;;;;;5049588;28;20044;-60
2022/09/01 11:45:02;;;;;;;0.80;0.20;;;;;;;;;;5049082;28;20021;-59
2022/09/01 11:47:31;;;;;;;1.00;0.40;;;;;;;;;;5051611;28;20088;-59
2022/09/01 11:49:59;;;;;;;0.65;0.30;;;;;;;;;;5050218;28;20116;-59
2022/09/01 11:52:26;;;;;;;1.08;0.30;;;;;;;;;;5049866;28;20096;-59
2022/09/01 11:54:53;;;;;;;2.58;0.30;;;;;;;;;;5050796;28;20082;-59
2022/09/01 11:57:30;;;;;;;1.65;0.28;;;;;;;;;;5051336;28;20024;-60
2022/09/01 11:59:57;;;;;;;0.60;0.40;;;;;;;;;;5046168;28;20037;-60
2022/09/01 12:02:25;;;;;;;2.05;0.55;;;;;;;;;;5044024;28;20057;-60
2022/09/01 12:04:53;;;;;;;0.60;0.30;;;;;;;;;;5049312;28;20037;-60
2022/09/01 12:07:38;;;;;;;1.08;0.30;;;;;;;;;;5050535;28;20475;-60
2022/09/01 12:10:12;;;;;;;2.20;0.30;;;;;;;;;;5049316;28;20595;-60
2022/09/01 12:12:39;;;;;;;0.82;0.28;;;;;;;;;;5054147;28;20061;-60
2022/09/01 12:15:10;;;;;;;1.67;0.30;;;;;;;;;;5053845;28;20047;-59
2022/09/01 12:17:36;;;;;;;0.88;0.40;;;;;;;;;;5054309;28;20031;-60
2022/09/01 12:20:21;;;;;;;1.15;0.40;;;;;;;;;;5052153;28;20021;-59
2022/09/01 12:22:47;;;;;;;4.35;0.50;;;;;;;;;;5048877;28;20031;-60
2022/09/01 12:25:24;;;;;;;0.30;0.20;;;;;;;;;;5054333;28;20041;-60
2022/09/01 12:27:51;;;;;;;1.10;0.32;;;;;;;;;;5053858;28;20021;-60
2022/09/01 12:30:25;;;;;;;1.08;0.35;;;;;;;;;;5053318;28;20021;-60
2022/09/01 12:32:51;;;;;;;0.63;0.32;;;;;;;;;;5049926;28;20025;-60
2022/09/01 12:35:24;;;;;;;1.20;0.43;;;;;;;;;;5042084;28;20048;-60
2022/09/01 12:37:51;;;;;;;1.73;0.22;;;;;;;;;;5052203;28;20108;-60
2022/09/01 12:40:21;;;;;;;2.17;0.35;;;;;;;;;;5053605;28;20397;-60
2022/09/01 12:42:51;;;;;;;4.45;0.57;;;;;;;;;;5051276;28;20172;-60
2022/09/01 12:45:37;;;;;;;1.70;0.20;;;;;;;;;;5052501;28;20067;-61
2022/09/01 12:48:03;;;;;;;0.73;0.28;;;;;;;;;;5044733;28;20369;-60
2022/09/01 12:50:29;;;;;;;0.40;0.20;;;;;;;;;;5042909;28;20059;-60
2022/09/01 12:53:00;;;;;;;0.88;0.40;;;;;;;;;;5052629;28;20048;-59
2022/09/01 12:55:27;;;;;;;0.47;0.20;;;;;;;;;;5051903;28;20509;-60
2022/09/01 12:57:55;;;;;;;0.88;0.35;;;;;;;;;;5051469;28;20029;-61
2022/09/01 13:00:22;;;;;;;4.45;0.52;;;;;;;;;;5046514;28;20029;-60
2022/09/01 13:02:51;;;;;;;1.48;0.45;;;;;;;;;;5045498;28;20033;-60
2022/09/01 13:05:29;;;;;;;2.30;0.43;;;;;;;;;;5048883;28;20033;-60
2022/09/01 13:07:56;;;;;;;1.80;0.50;;;;;;;;;;5048150;28;20032;-60
2022/09/01 13:10:24;;;;;;;0.77;0.30;;;;;;;;;;5054051;28;20171;-60
2022/09/01 13:12:50;;;;;;;0.50;0.38;;;;;;;;;;5051411;28;20075;-60
2022/09/01 13:15:17;;;;;;;0.85;0.40;;;;;;;;;;5050033;28;20029;-60
2022/09/01 13:17:43;;;;;;;0.57;0.30;;;;;;;;;;5044179;28;20095;-60
2022/09/01 13:20:10;;;;;;;1.20;0.40;;;;;;;;;;5050595;28;20021;-60
2022/09/01 13:22:37;;;;;;;0.70;0.10;;;;;;;;;;5056114;28;20020;-60
2022/09/01 13:25:03;;;;;;;4.07;0.30;;;;;;;;;;5052531;28;20040;-60
2022/09/01 13:27:29;;;;;;;1.52;0.30;;;;;;;;;;5056748;28;20066;-60
2022/09/01 13:29:55;;;;;;;1.42;0.40;;;;;;;;;;5049499;28;20021;-61
2022/09/01 13:32:23;;;;;;;1.70;0.43;;;;;;;;;;5054360;28;20045;-58
2022/09/01 13:34:50;;;;;;;0.88;0.47;;;;;;;;;;5058289;28;20021;-58
2022/09/01 13:37:16;;;;;;;4.18;0.45;;;;;;;;;;5053018;28;20028;-59
2022/09/01 13:39:42;;;;;;;0.63;0.20;;;;;;;;;;5057579;28;20029;-58
2022/09/01 13:42:09;;;;;;;1.02;0.20;;;;;;;;;;5048023;28;20033;-59
2022/09/01 13:44:35;;;;;;;0.35;0.20;;;;;;;;;;5057594;28;20491;-59
2022/09/01 13:47:02;;;;;;;0.52;0.13;;;;;;;;;;5051227;28;20575;-59
2022/09/01 13:49:28;;;;;;;1.88;0.55;;;;;;;;;;5055724;28;20496;-59
2022/09/01 13:51:54;;;;;;;2.38;0.32;;;;;;;;;;5052466;28;20028;-60
2022/09/01 13:54:20;;;;;;;1.17;0.20;;;;;;;;;;5044923;28;20541;-59
2022/09/01 13:56:46;;;;;;;2.08;0.15;;;;;;;;;;5051337;28;20391;-59
2022/09/01 13:59:12;;;;;;;3.08;0.15;;;;;;;;;;5048316;28;20032;-59
2022/09/01 14:01:41;;;;;;;0.52;0.10;;;;;;;;;;5046082;28;20021;-59
2022/09/01 14:04:07;;;;;;;2.25;0.30;;;;;;;;;;5048611;28;20029;-59
2022/09/01 14:06:38;;;;;;;1.23;0.20;;;;;;;;;;5052418;28;20021;-59
2022/09/01 14:09:04;;;;;;;2.88;0.30;;;;;;;;;;5051786;28;20049;-59
2022/09/01 14:11:31;;;;;;;4.68;0.70;;;;;;;;;;5044495;28;20538;-59
2022/09/01 14:13:57;;;;;;;0.60;0.10;;;;;;;;;;5051417;28;20391;-59
2022/09/01 14:16:23;;;;;;;1.88;0.50;;;;;;;;;;5058754;28;20145;-59
2022/09/01 14:18:49;;;;;;;1.23;0.25;;;;;;;;;;5048002;28;20562;-59
2022/09/01 14:21:15;;;;;;;0.45;0.32;;;;;;;;;;5046824;28;20373;-60
2022/09/01 14:23:42;;;;;;;1.88;0.40;;;;;;;;;;5050392;28;20032;-59
2022/09/01 14:26:15;;;;;;;2.03;0.20;;;;;;;;;;5045062;28;20369;-59
2022/09/01 14:28:44;;;;;;;0.50;0.17;;;;;;;;;;5046773;28;20021;-59
2022/09/01 14:31:11;;;;;;;2.78;0.50;;;;;;;;;;5049833;28;20025;-59
2022/09/01 14:33:38;;;;;;;0.30;0.10;;;;;;;;;;5051688;28;20021;-59
2022/09/01 14:36:04;;;;;;;3.33;0.32;;;;;;;;;;5052001;28;20033;-60
2022/09/01 14:38:31;;;;;;;2.72;0.15;;;;;;;;;;5053049;28;20086;-59
2022/09/01 14:40:57;;;;;;;0.88;0.10;;;;;;;;;;5048109;28;20511;-59
2022/09/01 14:43:24;;;;;;;1.60;0.20;;;;;;;;;;5061291;28;20108;-58
2022/09/01 14:46:01;;;;;;;5.13;0.43;;;;;;;;;;5062670;28;20530;-59
2022/09/01 14:48:27;;;;;;;0.82;0.30;;;;;;;;;;5054667;28;20384;-59
2022/09/01 14:50:53;;;;;;;1.88;0.30;;;;;;;;;;5043055;28;20029;-59
2022/09/01 14:53:19;;;;;;;1.83;0.50;;;;;;;;;;5046554;28;20551;-59
2022/09/01 14:55:45;;;;;;;0.73;0.20;;;;;;;;;;5047497;28;20040;-59